Time;durP1;ratioP1;P1;durP2;ratioP2;P2;SDS_P1;SDS_P2;PMS_P1;PMS_P2;Temp;Humidity;BMP_temperature;BMP_pressure;BME280_temperature;BME280_humidity;BME280_pressure;Samples;Min_cycle;Max_cycle;Signal;HPM_P1;HPM_P2
2022/11/09 00:02:20;;;;;;;15.68;2.35;;;;;;;9.97;100.00;99618.94;4814100;29;20372;-77
2022/11/09 00:04:45;;;;;;;15.15;2.10;;;;;;;9.97;100.00;99612.56;4829321;29;20034;-77
2022/11/09 00:07:11;;;;;;;13.15;2.00;;;;;;;9.93;100.00;99612.38;4814245;29;20038;-77
2022/11/09 00:09:36;;;;;;;15.43;2.35;;;;;;;9.93;100.00;99611.56;4829533;29;20038;-77
2022/11/09 00:12:03;;;;;;;19.85;2.67;;;;;;;9.87;100.00;99613.63;4828899;29;20041;-77
2022/11/09 00:14:29;;;;;;;11.52;1.80;;;;;;;9.84;100.00;99611.47;4814363;29;20041;-77
2022/11/09 00:16:55;;;;;;;16.27;2.28;;;;;;;9.88;100.00;99606.94;4813256;29;20046;-77
2022/11/09 00:19:21;;;;;;;12.85;2.10;;;;;;;9.82;100.00;99605.41;4817586;29;20135;-77
2022/11/09 00:21:46;;;;;;;13.18;2.15;;;;;;;9.82;100.00;99616.50;4829051;29;20091;-77
2022/11/09 00:24:12;;;;;;;12.65;2.55;;;;;;;9.77;100.00;99620.19;4829141;29;20455;-77
2022/11/09 00:26:37;;;;;;;12.77;2.03;;;;;;;9.72;100.00;99619.47;4829378;29;20033;-77
2022/11/09 00:29:03;;;;;;;18.25;2.50;;;;;;;9.69;100.00;99620.09;4829027;29;20559;-77
2022/11/09 00:31:28;;;;;;;16.13;2.00;;;;;;;9.68;100.00;99610.97;4828754;29;20040;-77
2022/11/09 00:33:55;;;;;;;12.35;1.92;;;;;;;9.65;100.00;99613.56;4828782;29;20037;-76
2022/11/09 00:36:21;;;;;;;15.57;2.05;;;;;;;9.65;100.00;99608.00;4811064;29;20556;-77
2022/11/09 00:38:48;;;;;;;13.40;1.90;;;;;;;9.62;100.00;99607.50;4829114;29;20539;-77
2022/11/09 00:41:14;;;;;;;10.52;1.95;;;;;;;9.60;100.00;99609.75;4818893;29;20391;-77
2022/11/09 00:43:40;;;;;;;13.60;2.13;;;;;;;9.57;100.00;99618.69;4827074;29;20026;-77
2022/11/09 00:46:05;;;;;;;13.85;1.80;;;;;;;9.56;100.00;99608.72;4808335;29;20038;-77
2022/11/09 00:48:31;;;;;;;9.30;1.95;;;;;;;9.56;100.00;99619.81;4828580;29;20717;-76
2022/11/09 00:50:56;;;;;;;13.65;2.15;;;;;;;9.55;100.00;99612.63;4844858;29;20061;-76
2022/11/09 00:53:22;;;;;;;14.77;2.08;;;;;;;9.54;100.00;99624.84;4813357;29;20026;-77
2022/11/09 00:55:57;;;;;;;18.40;1.98;;;;;;;9.50;100.00;99621.06;4812769;29;20026;-77
2022/11/09 00:58:23;;;;;;;14.43;2.45;;;;;;;9.48;100.00;99628.84;4828773;29;20061;-76
2022/11/09 01:00:49;;;;;;;20.92;2.55;;;;;;;9.45;100.00;99618.38;4813072;29;20026;-77
2022/11/09 01:03:15;;;;;;;19.65;2.15;;;;;;;9.44;100.00;99618.69;4795159;29;20026;-77
2022/11/09 01:05:40;;;;;;;12.98;2.13;;;;;;;9.45;100.00;99623.94;4839657;29;20094;-77
2022/11/09 01:08:06;;;;;;;16.35;2.05;;;;;;;9.42;100.00;99626.47;4798476;29;20036;-77
2022/11/09 01:10:31;;;;;;;22.98;2.70;;;;;;;9.41;100.00;99628.44;4813512;29;20050;-77
2022/11/09 01:12:57;;;;;;;13.02;2.10;;;;;;;9.42;100.00;99632.88;4815205;29;20047;-77
2022/11/09 01:15:22;;;;;;;16.52;2.40;;;;;;;9.39;100.00;99628.75;4839719;29;20077;-77
2022/11/09 01:17:48;;;;;;;16.15;2.38;;;;;;;9.38;100.00;99631.81;4821606;29;20042;-78
2022/11/09 01:20:15;;;;;;;20.55;2.45;;;;;;;9.36;100.00;99631.31;4807915;29;20064;-77
2022/11/09 01:22:40;;;;;;;13.90;2.05;;;;;;;9.37;100.00;99632.97;4828710;29;20026;-77
2022/11/09 01:25:06;;;;;;;12.68;1.98;;;;;;;9.37;100.00;99644.88;4812532;29;20113;-78
2022/11/09 01:27:32;;;;;;;21.38;2.22;;;;;;;9.37;100.00;99635.72;4813194;29;20042;-77
2022/11/09 01:29:57;;;;;;;16.83;2.83;;;;;;;9.36;100.00;99642.38;4813067;29;20376;-77
2022/11/09 01:32:23;;;;;;;17.85;2.30;;;;;;;9.35;100.00;99637.97;4812733;29;20030;-77
2022/11/09 01:34:48;;;;;;;15.82;2.60;;;;;;;9.36;100.00;99647.94;4804429;29;20053;-77
2022/11/09 01:37:14;;;;;;;16.08;2.50;;;;;;;9.32;100.00;99647.72;4828374;29;20045;-77
2022/11/09 01:39:39;;;;;;;14.02;1.90;;;;;;;9.33;100.00;99648.53;4828448;29;20038;-77
2022/11/09 01:42:05;;;;;;;15.68;2.28;;;;;;;9.34;100.00;99651.03;4813051;29;20040;-77
2022/11/09 01:44:30;;;;;;;15.80;2.50;;;;;;;9.32;100.00;99647.72;4820855;29;20206;-77
2022/11/09 01:46:59;;;;;;;19.40;2.22;;;;;;;9.32;100.00;99646.91;4797755;29;20484;-77
2022/11/09 01:49:30;;;;;;;13.75;2.35;;;;;;;9.32;100.00;99653.28;4827865;29;20094;-76
2022/11/09 01:52:00;;;;;;;16.52;2.28;;;;;;;9.32;100.00;99655.22;4843518;29;20044;-77
2022/11/09 01:54:27;;;;;;;20.17;2.25;;;;;;;9.33;100.00;99662.41;4813110;29;20656;-77
2022/11/09 01:56:55;;;;;;;18.90;2.28;;;;;;;9.31;100.00;99657.19;4813093;29;20445;-77
2022/11/09 01:59:22;;;;;;;15.95;1.92;;;;;;;9.31;100.00;99654.41;4814975;29;20030;-77
2022/11/09 02:01:48;;;;;;;16.55;2.15;;;;;;;9.31;100.00;99664.69;4804269;29;20072;-77
2022/11/09 02:04:18;;;;;;;12.85;2.00;;;;;;;9.31;100.00;99661.91;4812373;29;20034;-77
2022/11/09 02:06:43;;;;;;;16.75;2.05;;;;;;;9.31;100.00;99673.00;4815186;29;20364;-77
2022/11/09 02:09:12;;;;;;;15.55;1.90;;;;;;;9.28;100.00;99659.75;4800783;29;20030;-77
2022/11/09 02:11:37;;;;;;;19.08;2.75;;;;;;;9.27;100.00;99660.84;4783298;29;20417;-77
2022/11/09 02:14:03;;;;;;;17.65;1.95;;;;;;;9.24;100.00;99661.47;4844862;29;20045;-77
2022/11/09 02:16:28;;;;;;;23.45;2.80;;;;;;;9.24;100.00;99664.25;4830801;29;20049;-77
2022/11/09 02:18:55;;;;;;;13.68;2.03;;;;;;;9.24;100.00;99661.47;4803536;29;20045;-77
2022/11/09 02:21:22;;;;;;;12.27;2.03;;;;;;;9.21;100.00;99651.00;4815664;29;20034;-77
2022/11/09 02:23:48;;;;;;;17.52;2.25;;;;;;;9.20;100.00;99649.38;4831071;29;20078;-77
2022/11/09 02:26:20;;;;;;;12.60;2.30;;;;;;;9.20;100.00;99652.16;4801699;29;20395;-77
2022/11/09 02:28:46;;;;;;;18.08;2.70;;;;;;;9.16;100.00;99649.13;4816403;29;20034;-77
2022/11/09 02:31:13;;;;;;;18.73;2.60;;;;;;;9.18;100.00;99656.03;4815627;29;20369;-77
2022/11/09 02:33:54;;;;;;;11.63;2.00;;;;;;;9.15;100.00;99658.59;4815573;29;20038;-77
2022/11/09 02:36:22;;;;;;;11.85;2.08;;;;;;;9.11;100.00;99652.00;4822044;29;20038;-77
2022/11/09 02:38:48;;;;;;;16.05;2.58;;;;;;;9.11;100.00;99657.53;4830961;29;20033;-77
2022/11/09 02:41:13;;;;;;;14.10;2.22;;;;;;;9.11;100.00;99647.31;4800380;29;20030;-77
2022/11/09 02:43:39;;;;;;;16.05;2.17;;;;;;;9.08;100.00;99649.84;4815689;29;20030;-77
2022/11/09 02:46:04;;;;;;;16.10;1.85;;;;;;;9.07;100.00;99662.06;4815179;29;20038;-77
2022/11/09 02:48:30;;;;;;;16.30;2.47;;;;;;;9.04;100.00;99651.59;4830487;29;20125;-77
2022/11/09 02:50:55;;;;;;;18.85;2.50;;;;;;;9.04;100.00;99646.88;4815433;29;20046;-77
2022/11/09 02:53:21;;;;;;;17.40;2.25;;;;;;;9.03;100.00;99644.44;4815513;29;20034;-77
2022/11/09 02:55:47;;;;;;;19.98;2.35;;;;;;;9.03;100.00;99652.72;4830438;29;20511;-77
2022/11/09 02:58:12;;;;;;;18.98;2.15;;;;;;;9.03;100.00;99650.78;4846101;29;20040;-77
2022/11/09 03:00:38;;;;;;;15.18;2.50;;;;;;;9.02;100.00;99649.13;4830056;29;20037;-77
2022/11/09 03:03:03;;;;;;;13.18;2.08;;;;;;;9.00;100.00;99650.53;4830665;29;20045;-77
2022/11/09 03:05:29;;;;;;;16.45;2.53;;;;;;;9.00;100.00;99650.53;4814788;29;20034;-77
2022/11/09 03:07:55;;;;;;;13.80;1.90;;;;;;;8.98;100.00;99656.41;4830459;29;20411;-77
2022/11/09 03:10:21;;;;;;;12.10;2.45;;;;;;;8.95;100.00;99654.25;4815337;29;20625;-77
2022/11/09 03:12:46;;;;;;;15.82;1.70;;;;;;;8.97;100.00;99651.16;4829997;29;20038;-77
2022/11/09 03:15:12;;;;;;;12.18;1.83;;;;;;;8.93;100.00;99650.94;4830336;29;20038;-77
2022/11/09 03:17:37;;;;;;;19.30;2.33;;;;;;;8.91;100.00;99653.19;4811338;29;20038;-77
2022/11/09 03:20:03;;;;;;;14.88;1.73;;;;;;;8.89;100.00;99647.97;4806701;29;20042;-77
2022/11/09 03:22:28;;;;;;;12.80;2.10;;;;;;;8.85;100.00;99649.69;4830215;29;20038;-77
2022/11/09 03:24:54;;;;;;;15.40;2.10;;;;;;;8.84;100.00;99653.59;4830644;29;20041;-77
2022/11/09 03:27:19;;;;;;;14.57;2.42;;;;;;;8.87;100.00;99649.41;4818107;29;20630;-77
2022/11/09 03:29:45;;;;;;;13.02;1.80;;;;;;;8.83;100.00;99651.97;4833910;29;20045;-77
2022/11/09 03:32:10;;;;;;;18.45;2.47;;;;;;;8.84;100.00;99653.59;4829758;29;20451;-77
2022/11/09 03:34:36;;;;;;;15.50;2.20;;;;;;;8.78;100.00;99651.22;4835537;29;20040;-77
2022/11/09 03:37:01;;;;;;;12.40;2.20;;;;;;;8.79;100.00;99652.88;4799945;29;20045;-77
2022/11/09 03:39:27;;;;;;;13.45;2.00;;;;;;;8.78;100.00;99654.00;4829901;29;20033;-76
2022/11/09 03:41:52;;;;;;;14.30;2.17;;;;;;;8.79;100.00;99656.44;4844987;29;20094;-77
2022/11/09 03:44:19;;;;;;;13.45;2.20;;;;;;;8.75;100.00;99654.56;4846438;29;20033;-77
2022/11/09 03:46:45;;;;;;;18.20;2.40;;;;;;;8.74;100.00;99653.75;4845828;29;20102;-77
2022/11/09 03:49:10;;;;;;;18.95;2.60;;;;;;;8.75;100.00;99654.56;4814306;29;20061;-77
2022/11/09 03:51:36;;;;;;;16.60;2.60;;;;;;;8.72;100.00;99656.84;4829775;29;20060;-77
2022/11/09 03:54:01;;;;;;;11.40;2.22;;;;;;;8.70;100.00;99659.09;4829750;29;20037;-77
2022/11/09 03:56:27;;;;;;;17.15;2.58;;;;;;;8.68;100.00;99660.53;4845025;29;20041;-77
2022/11/09 03:58:52;;;;;;;17.10;2.67;;;;;;;8.67;100.00;99659.69;4829585;29;20046;-77
2022/11/09 04:01:18;;;;;;;12.95;2.83;;;;;;;8.65;100.00;99664.72;4828856;29;20038;-77
2022/11/09 04:03:43;;;;;;;17.48;2.30;;;;;;;8.64;100.00;99660.31;4829325;29;20029;-77
2022/11/09 04:06:08;;;;;;;11.02;2.15;;;;;;;8.64;100.00;99667.78;4829435;29;20044;-77
2022/11/09 04:08:34;;;;;;;15.63;2.95;;;;;;;8.64;100.00;99676.91;4829307;29;20032;-77
2022/11/09 04:10:59;;;;;;;14.10;2.05;;;;;;;8.63;100.00;99672.47;4828963;29;20033;-77
2022/11/09 04:13:25;;;;;;;14.48;3.05;;;;;;;8.60;100.00;99681.41;4829091;29;20460;-77
2022/11/09 04:15:50;;;;;;;11.82;2.30;;;;;;;8.59;100.00;99685.28;4829129;29;20030;-77
2022/11/09 04:18:16;;;;;;;14.82;3.05;;;;;;;8.60;100.00;99691.66;4803544;29;20034;-78
2022/11/09 04:20:41;;;;;;;18.08;2.15;;;;;;;8.58;100.00;99689.19;4812247;29;20100;-77
2022/11/09 04:23:09;;;;;;;15.27;2.28;;;;;;;8.58;100.00;99700.28;4813812;29;20129;-77
2022/11/09 04:25:36;;;;;;;15.23;2.55;;;;;;;8.55;100.00;99706.38;4814208;29;20484;-76
2022/11/09 04:28:02;;;;;;;17.63;2.13;;;;;;;8.53;100.00;99703.09;4814117;29;20041;-76
2022/11/09 04:30:28;;;;;;;14.23;2.42;;;;;;;8.54;100.00;99704.75;4839776;29;20449;-77
2022/11/09 04:32:55;;;;;;;9.98;1.85;;;;;;;8.54;100.00;99715.81;4845323;29;20119;-77
2022/11/09 04:35:20;;;;;;;19.27;2.55;;;;;;;8.55;100.00;99725.75;4819458;29;20038;-77
2022/11/09 04:37:59;;;;;;;13.23;2.50;;;;;;;8.53;100.00;99725.25;4829107;29;20083;-76
2022/11/09 04:40:25;;;;;;;17.83;2.38;;;;;;;8.50;100.00;99726.66;4813652;29;20038;-77
2022/11/09 04:42:51;;;;;;;14.88;2.58;;;;;;;8.51;100.00;99721.94;4813767;29;20060;-77
2022/11/09 04:45:17;;;;;;;13.95;2.42;;;;;;;8.50;100.00;99737.75;4828631;29;20032;-77
2022/11/09 04:47:42;;;;;;;16.95;2.05;;;;;;;8.52;100.00;99734.66;4828929;29;20373;-76
2022/11/09 04:50:08;;;;;;;12.85;2.80;;;;;;;8.53;100.00;99736.31;4844975;29;20061;-77
2022/11/09 04:52:33;;;;;;;16.52;2.10;;;;;;;8.49;100.00;99738.03;4828675;29;20501;-76
2022/11/09 04:54:59;;;;;;;20.90;2.80;;;;;;;8.48;100.00;99736.38;4845129;29;20042;-77
2022/11/09 04:57:24;;;;;;;14.80;2.90;;;;;;;8.48;100.00;99747.47;4813277;29;20041;-76
2022/11/09 04:59:50;;;;;;;11.60;2.72;;;;;;;8.48;100.00;99747.47;4828827;29;20057;-77
2022/11/09 05:02:15;;;;;;;13.48;2.58;;;;;;;8.48;100.00;99753.00;4828749;29;20052;-76
2022/11/09 05:04:41;;;;;;;16.83;2.15;;;;;;;8.45;100.00;99743.34;4828648;29;20034;-77
2022/11/09 05:07:06;;;;;;;17.42;2.28;;;;;;;8.48;100.00;99747.47;4828458;29;20120;-76
2022/11/09 05:09:32;;;;;;;16.83;2.13;;;;;;;8.46;100.00;99752.47;4844931;29;20034;-77
2022/11/09 05:11:57;;;;;;;16.48;2.45;;;;;;;8.48;100.00;99761.28;4828238;29;20033;-77
2022/11/09 05:14:23;;;;;;;15.30;2.10;;;;;;;8.48;100.00;99758.53;4828534;29;20113;-76
2022/11/09 05:16:48;;;;;;;8.57;2.00;;;;;;;8.44;100.00;99754.69;4844279;29;20075;-76
2022/11/09 05:19:14;;;;;;;12.18;2.20;;;;;;;8.45;100.00;99761.91;4815985;29;20034;-76
2022/11/09 05:21:39;;;;;;;15.25;2.80;;;;;;;8.42;100.00;99760.53;4844620;29;20034;-76
2022/11/09 05:24:05;;;;;;;10.52;2.33;;;;;;;8.43;100.00;99762.19;4843376;29;20495;-77
2022/11/09 05:26:35;;;;;;;16.75;3.08;;;;;;;8.42;100.00;99768.03;4813528;29;20037;-77
2022/11/09 05:29:02;;;;;;;10.55;2.03;;;;;;;8.41;100.00;99764.44;4813543;29;20428;-77
2022/11/09 05:31:27;;;;;;;15.63;2.65;;;;;;;8.39;100.00;99769.44;4852698;29;20540;-77
2022/11/09 05:33:53;;;;;;;12.65;2.10;;;;;;;8.40;100.00;99765.53;4828375;29;20061;-77
2022/11/09 05:36:18;;;;;;;15.07;2.47;;;;;;;8.37;100.00;99768.06;4818641;29;20407;-77
2022/11/09 05:38:44;;;;;;;12.57;2.13;;;;;;;8.35;100.00;99768.34;4813404;29;20038;-77
2022/11/09 05:41:10;;;;;;;19.15;2.47;;;;;;;8.34;100.00;99779.72;4808230;29;20048;-76
2022/11/09 05:43:35;;;;;;;15.38;2.45;;;;;;;8.37;100.00;99779.13;4830831;29;20034;-76
2022/11/09 05:46:01;;;;;;;13.18;2.00;;;;;;;8.35;100.00;99784.94;4842338;29;20038;-76
2022/11/09 05:48:27;;;;;;;15.57;2.25;;;;;;;8.34;100.00;99788.03;4848086;29;20034;-76
2022/11/09 05:50:52;;;;;;;14.32;2.60;;;;;;;8.36;100.00;99791.28;4828732;29;20381;-77
2022/11/09 05:53:17;;;;;;;17.17;2.20;;;;;;;8.33;100.00;99787.22;4829475;29;20041;-76
2022/11/09 05:55:43;;;;;;;15.20;2.88;;;;;;;8.32;100.00;99785.53;4798499;29;20042;-77
2022/11/09 05:58:08;;;;;;;10.85;2.47;;;;;;;8.32;100.00;99790.25;4828546;29;20665;-76
2022/11/09 06:00:34;;;;;;;12.82;2.30;;;;;;;8.32;100.00;99793.84;4828038;29;20034;-77
2022/11/09 06:03:04;;;;;;;14.80;2.60;;;;;;;8.29;100.00;99802.72;4813830;29;20066;-76
2022/11/09 06:05:32;;;;;;;14.43;2.42;;;;;;;8.32;100.00;99790.25;4798162;29;20041;-76
2022/11/09 06:08:04;;;;;;;13.48;2.40;;;;;;;8.30;100.00;99790.53;4798675;29;20049;-77
2022/11/09 06:10:29;;;;;;;11.90;3.33;;;;;;;8.33;100.00;99808.50;4813580;29;20598;-76
2022/11/09 06:12:55;;;;;;;19.90;3.47;;;;;;;8.35;100.00;99807.06;4812983;29;20087;-76
2022/11/09 06:15:20;;;;;;;10.13;2.70;;;;;;;8.36;100.00;99807.91;4829073;29;20060;-76
2022/11/09 06:17:53;;;;;;;15.43;2.78;;;;;;;8.37;100.00;99804.84;4806265;29;20405;-76
2022/11/09 06:20:18;;;;;;;14.77;3.13;;;;;;;8.37;100.00;99817.88;4824683;29;20035;-76
2022/11/09 06:22:44;;;;;;;15.95;2.50;;;;;;;8.37;100.00;99821.44;4829304;29;20732;-76
2022/11/09 06:25:09;;;;;;;15.07;2.92;;;;;;;8.37;100.00;99820.63;4829369;29;20042;-76
2022/11/09 06:27:35;;;;;;;12.18;2.47;;;;;;;8.40;100.00;99820.88;4812930;29;20034;-76
2022/11/09 06:30:00;;;;;;;13.65;2.45;;;;;;;8.40;100.00;99820.06;4827520;29;20633;-76
2022/11/09 06:32:26;;;;;;;16.77;2.60;;;;;;;8.41;100.00;99827.22;4827976;29;20039;-76
2022/11/09 06:34:51;;;;;;;13.88;2.67;;;;;;;8.42;100.00;99829.72;4834139;29;20036;-77
2022/11/09 06:37:17;;;;;;;10.98;1.85;;;;;;;8.41;100.00;99833.63;4815671;29;20029;-76
2022/11/09 06:39:43;;;;;;;12.15;2.38;;;;;;;8.45;100.00;99826.34;4847382;29;20041;-76
2022/11/09 06:42:08;;;;;;;11.98;2.20;;;;;;;8.46;100.00;99835.47;4830797;29;20038;-76
2022/11/09 06:44:34;;;;;;;15.07;2.28;;;;;;;8.47;100.00;99837.97;4815664;29;20063;-76
2022/11/09 06:46:59;;;;;;;14.57;2.45;;;;;;;8.47;100.00;99837.16;4830315;29;20042;-76
2022/11/09 06:49:25;;;;;;;14.18;1.95;;;;;;;8.48;100.00;99839.59;4846678;29;20445;-76
2022/11/09 06:51:50;;;;;;;15.93;2.25;;;;;;;8.49;100.00;99837.66;4815017;29;20044;-76
2022/11/09 06:54:16;;;;;;;14.30;2.17;;;;;;;8.53;100.00;99840.66;4829975;29;20094;-77
2022/11/09 06:56:41;;;;;;;20.90;2.75;;;;;;;8.50;100.00;99845.66;4830387;29;20041;-77
2022/11/09 06:59:07;;;;;;;9.32;2.03;;;;;;;8.54;100.00;99845.88;4832374;29;20499;-77
2022/11/09 07:01:33;;;;;;;14.18;2.78;;;;;;;8.55;100.00;99853.06;4840561;29;20126;-77
2022/11/09 07:03:58;;;;;;;14.10;2.20;;;;;;;8.55;100.00;99861.38;4830185;29;20038;-77
2022/11/09 07:06:24;;;;;;;15.23;2.15;;;;;;;8.53;100.00;99863.63;4815325;29;20033;-77
2022/11/09 07:08:53;;;;;;;16.65;2.53;;;;;;;8.53;100.00;99865.56;4830343;29;20038;-77
2022/11/09 07:11:18;;;;;;;14.98;1.98;;;;;;;8.52;100.00;99867.50;4815377;29;20034;-77
2022/11/09 07:13:45;;;;;;;19.13;2.15;;;;;;;8.49;100.00;99873.63;4830176;29;20034;-77
2022/11/09 07:16:11;;;;;;;11.73;1.83;;;;;;;8.50;100.00;99878.06;4830410;29;20033;-77
2022/11/09 07:18:36;;;;;;;13.68;2.10;;;;;;;8.51;100.00;99874.16;4802777;29;20038;-77
2022/11/09 07:21:03;;;;;;;10.40;1.65;;;;;;;8.51;100.00;99882.47;4815254;29;20030;-77
2022/11/09 07:23:29;;;;;;;14.70;1.95;;;;;;;8.50;100.00;99889.13;4830255;29;20611;-77
2022/11/09 07:25:57;;;;;;;15.80;2.22;;;;;;;8.49;100.00;99885.50;4830538;29;20030;-77
2022/11/09 07:28:22;;;;;;;13.52;2.03;;;;;;;8.49;100.00;99895.75;4845267;29;20026;-77
2022/11/09 07:30:51;;;;;;;11.30;1.60;;;;;;;8.49;100.00;99901.31;4846181;29;20506;-76
2022/11/09 07:33:17;;;;;;;17.27;2.47;;;;;;;8.50;100.00;99905.72;4814722;29;20030;-76
2022/11/09 07:35:43;;;;;;;12.23;1.48;;;;;;;8.51;100.00;99915.66;4814702;29;20183;-76
2022/11/09 07:38:08;;;;;;;10.43;1.60;;;;;;;8.55;100.00;99913.94;4799668;29;20492;-76
2022/11/09 07:40:34;;;;;;;12.77;1.73;;;;;;;8.58;100.00;99916.16;4846463;29;20044;-76
2022/11/09 07:43:00;;;;;;;11.93;1.88;;;;;;;8.59;100.00;99920.56;4787072;29;20052;-76
2022/11/09 07:45:29;;;;;;;13.05;2.10;;;;;;;8.56;100.00;99923.91;4814191;29;20034;-76
2022/11/09 07:47:58;;;;;;;11.32;2.00;;;;;;;8.60;100.00;99924.97;4785289;29;20479;-76
2022/11/09 07:50:24;;;;;;;14.98;2.10;;;;;;;8.63;100.00;99935.44;4829578;29;20050;-76
2022/11/09 07:52:50;;;;;;;12.77;2.08;;;;;;;8.63;100.00;99946.50;4814339;29;20467;-76
2022/11/09 07:55:16;;;;;;;15.10;1.90;;;;;;;8.68;100.00;99949.22;4828772;29;20106;-76
2022/11/09 07:57:43;;;;;;;16.77;2.28;;;;;;;8.72;100.00;99960.56;4829401;29;20034;-76
2022/11/09 08:00:09;;;;;;;11.93;1.80;;;;;;;8.75;100.00;99961.88;4845647;29;20086;-76
2022/11/09 08:02:35;;;;;;;9.68;1.80;;;;;;;8.77;100.00;99976.25;4813261;29;20512;-76
2022/11/09 08:05:02;;;;;;;12.63;2.17;;;;;;;8.79;100.00;99968.50;4829062;29;20045;-75
2022/11/09 08:07:28;;;;;;;9.23;1.80;;;;;;;8.83;100.00;99969.53;4829415;29;20058;-75
2022/11/09 08:09:53;;;;;;;15.30;2.33;;;;;;;8.85;100.00;99981.16;4824238;29;20081;-76
2022/11/09 08:12:19;;;;;;;11.00;1.70;;;;;;;8.90;100.00;99989.41;4786638;29;20041;-76
2022/11/09 08:14:44;;;;;;;10.90;1.75;;;;;;;8.91;100.00;99991.88;4845635;29;20090;-75
2022/11/09 08:17:10;;;;;;;12.10;1.85;;;;;;;8.95;100.00;99998.47;4826752;29;20034;-76
2022/11/09 08:19:35;;;;;;;10.25;1.88;;;;;;;8.97;100.00;100003.72;4834451;29;20042;-75
2022/11/09 08:22:01;;;;;;;9.85;1.52;;;;;;;9.00;100.00;100005.06;4813927;29;20045;-76
2022/11/09 08:24:26;;;;;;;14.38;2.05;;;;;;;9.02;100.00;100014.72;4845632;29;20030;-76
2022/11/09 08:26:51;;;;;;;14.98;1.65;;;;;;;9.06;100.00;100014.97;4828774;29;20483;-76
2022/11/09 08:29:17;;;;;;;9.68;1.83;;;;;;;9.09;100.00;100020.75;4829337;29;20547;-76
2022/11/09 08:31:42;;;;;;;8.85;1.98;;;;;;;9.11;100.00;100029.59;4813704;29;20055;-76
2022/11/09 08:34:13;;;;;;;9.90;1.77;;;;;;;9.11;100.00;100029.59;4845111;29;20034;-76
2022/11/09 08:36:38;;;;;;;9.43;1.38;;;;;;;9.14;100.00;100034.53;4828736;29;20034;-76
2022/11/09 08:39:04;;;;;;;6.63;1.42;;;;;;;9.18;100.00;100037.53;4798818;29;20570;-76
2022/11/09 08:41:29;;;;;;;6.93;1.70;;;;;;;9.20;100.00;100035.28;4828580;29;20042;-76
2022/11/09 08:43:55;;;;;;;11.98;1.90;;;;;;;9.24;100.00;100035.50;4828228;29;20376;-76
2022/11/09 08:46:20;;;;;;;12.32;1.60;;;;;;;9.26;100.00;100038.81;4828563;29;20041;-76
2022/11/09 08:48:46;;;;;;;9.82;1.63;;;;;;;9.33;100.00;100044.81;4828740;29;20041;-76
2022/11/09 08:51:11;;;;;;;10.45;1.70;;;;;;;9.35;100.00;100057.25;4828605;29;20054;-76
2022/11/09 08:53:37;;;;;;;11.48;1.70;;;;;;;9.40;100.00;100051.66;4813653;29;20037;-77
2022/11/09 08:56:05;;;;;;;9.15;1.45;;;;;;;9.45;100.00;100061.84;4844846;29;20093;-76
2022/11/09 08:58:31;;;;;;;16.20;2.00;;;;;;;9.50;100.00;100059.00;4844957;29;20061;-76
2022/11/09 09:00:56;;;;;;;9.32;1.42;;;;;;;9.56;100.00;100060.59;4828481;29;20042;-76
2022/11/09 09:03:21;;;;;;;12.07;1.40;;;;;;;9.62;100.00;100075.22;4844825;29;20547;-76
2022/11/09 09:05:47;;;;;;;11.27;2.05;;;;;;;9.67;100.00;100065.97;4828505;29;20041;-76
2022/11/09 09:08:14;;;;;;;9.25;1.40;;;;;;;9.74;100.00;100063.66;4844855;29;20064;-76
2022/11/09 09:10:40;;;;;;;8.27;1.80;;;;;;;9.78;100.00;100075.81;4848443;29;20037;-76
2022/11/09 09:13:06;;;;;;;6.68;1.48;;;;;;;9.84;100.00;100083.75;4829825;29;20056;-76
2022/11/09 09:15:31;;;;;;;8.48;1.67;;;;;;;9.90;100.00;100094.78;4827920;29;20038;-76
2022/11/09 09:18:00;;;;;;;8.27;1.27;;;;;;;9.94;100.00;100091.09;4820511;29;20091;-76
2022/11/09 09:20:26;;;;;;;10.90;1.70;;;;;;;10.00;100.00;100095.47;4824708;29;20671;-76
2022/11/09 09:22:51;;;;;;;18.75;1.67;;;;;;;10.04;100.00;100093.72;4828567;29;20041;-76
2022/11/09 09:25:17;;;;;;;10.32;1.33;;;;;;;10.09;100.00;100108.66;4813572;29;20026;-76
2022/11/09 09:27:43;;;;;;;14.15;1.88;;;;;;;10.15;100.00;100101.91;4828547;29;20151;-77
2022/11/09 09:30:09;;;;;;;12.00;1.73;;;;;;;10.20;100.00;100096.28;4844371;29;20128;-76
2022/11/09 09:32:34;;;;;;;11.95;1.50;;;;;;;10.26;100.00;100108.94;4828462;29;20117;-76
2022/11/09 09:35:00;;;;;;;10.52;1.70;;;;;;;10.30;100.00;100104.44;4850752;29;20679;-76
2022/11/09 09:37:25;;;;;;;9.90;1.60;;;;;;;10.36;100.00;100106.00;4844556;29;20034;-76
2022/11/09 09:39:51;;;;;;;10.35;1.55;;;;;;;10.39;100.00;100111.00;4812301;29;20045;-76
2022/11/09 09:42:18;;;;;;;10.65;2.10;;;;;;;10.47;100.00;100126.09;4828104;29;20124;-76
2022/11/09 09:44:55;;;;;;;11.30;1.65;;;;;;;10.51;100.00;100128.00;4783106;29;20033;-76
2022/11/09 09:47:38;;;;;;;13.57;1.80;;;;;;;10.58;100.00;100121.22;4813956;29;20049;-76
2022/11/09 09:50:30;;;;;;;12.77;1.95;;;;;;;10.66;100.00;100134.41;4827742;29;20058;-76
2022/11/09 09:53:30;;;;;;;6.47;1.33;;;;;;;10.72;100.00;100149.84;4808426;29;20519;-76
2022/11/09 09:56:01;;;;;;;10.77;1.83;;;;;;;10.80;100.00;100140.81;4826032;29;20561;-76
2022/11/09 09:58:28;;;;;;;14.68;2.25;;;;;;;10.87;100.00;100146.81;4803565;29;20038;-76
2022/11/09 10:01:14;;;;;;;11.70;1.90;;;;;;;10.95;100.00;100151.69;4812841;29;20063;-76
2022/11/09 10:03:40;;;;;;;11.85;1.98;;;;;;;11.03;100.00;100155.72;4827824;29;20034;-76
2022/11/09 10:06:39;;;;;;;10.23;1.80;;;;;;;11.13;100.00;100160.25;4812791;29;20030;-76
2022/11/09 10:09:37;;;;;;;15.98;2.63;;;;;;;11.23;100.00;100160.06;4800142;29;20026;-76
2022/11/09 10:12:24;;;;;;;12.07;2.22;;;;;;;11.34;100.00;100161.53;4819330;29;20079;-76
2022/11/09 10:15:08;;;;;;;13.68;1.50;;;;;;;11.44;100.00;100165.22;4827498;29;20449;-76
2022/11/09 10:18:19;;;;;;;15.68;1.92;;;;;;;11.54;100.00;100171.41;4807572;29;20072;-76
2022/11/09 10:20:57;;;;;;;11.02;1.80;;;;;;;11.67;100.00;100180.88;4826192;29;20042;-76
2022/11/09 10:23:31;;;;;;;13.18;2.00;;;;;;;11.77;100.00;100182.63;4827804;29;20041;-76
2022/11/09 10:26:04;;;;;;;16.02;2.85;;;;;;;11.89;100.00;100190.47;4827446;29;20617;-76
2022/11/09 10:28:32;;;;;;;15.18;2.72;;;;;;;12.01;100.00;100188.00;4830596;29;20488;-76
2022/11/09 10:30:57;;;;;;;15.50;2.30;;;;;;;12.12;100.00;100189.44;4830700;29;20463;-76
2022/11/09 10:33:23;;;;;;;13.98;2.60;;;;;;;12.24;100.00;100200.03;4815960;29;20053;-76
2022/11/09 10:36:07;;;;;;;13.82;2.50;;;;;;;12.38;100.00;100194.41;4812860;29;20122;-76
2022/11/09 10:38:36;;;;;;;15.52;2.03;;;;;;;12.51;100.00;100205.53;4845005;29;20462;-76
2022/11/09 10:41:05;;;;;;;10.45;2.25;;;;;;;12.65;100.00;100204.66;4830589;29;20042;-76
2022/11/09 10:43:31;;;;;;;16.92;2.20;;;;;;;12.80;100.00;100200.66;4815768;29;20029;-76
2022/11/09 10:45:58;;;;;;;17.83;2.35;;;;;;;12.96;100.00;100211.13;4830656;29;20479;-76
2022/11/09 10:48:34;;;;;;;12.82;1.83;;;;;;;13.08;100.00;100212.50;4815683;29;20040;-76
2022/11/09 10:51:00;;;;;;;12.15;2.10;;;;;;;13.23;100.00;100214.06;4813983;29;20062;-76
2022/11/09 10:53:27;;;;;;;12.10;1.80;;;;;;;13.35;100.00;100222.72;4797284;29;20073;-76
2022/11/09 10:56:11;;;;;;;10.73;1.73;;;;;;;13.48;100.00;100223.75;4828613;29;20109;-76
2022/11/09 10:58:44;;;;;;;14.63;2.22;;;;;;;13.58;100.00;100232.66;4812343;29;20403;-77
2022/11/09 11:01:23;;;;;;;9.60;1.65;;;;;;;13.68;100.00;100225.13;4828441;29;20049;-77
2022/11/09 11:03:50;;;;;;;11.88;2.08;;;;;;;13.76;100.00;100227.16;4787288;29;20058;-77
2022/11/09 11:06:25;;;;;;;8.68;1.38;;;;;;;13.81;100.00;100235.38;4812665;29;20060;-77
2022/11/09 11:09:10;;;;;;;13.85;2.25;;;;;;;13.89;100.00;100237.38;4828401;29;20484;-77
2022/11/09 11:11:37;;;;;;;12.60;1.65;;;;;;;13.99;100.00;100237.09;4819203;29;20034;-77
2022/11/09 11:14:13;;;;;;;10.23;2.05;;;;;;;14.09;100.00;100236.78;4807541;29;20030;-77
2022/11/09 11:16:38;;;;;;;14.10;2.08;;;;;;;14.15;100.00;100239.44;4796506;29;20030;-76
2022/11/09 11:19:04;;;;;;;10.80;2.78;;;;;;;14.21;100.00;100238.16;4794880;29;20103;-76
2022/11/09 11:21:29;;;;;;;10.50;1.80;;;;;;;14.26;100.00;100235.19;4781474;29;20095;-76
2022/11/09 11:24:15;;;;;;;10.88;1.75;;;;;;;14.34;100.00;100239.16;4796793;29;20030;-76